Time;durP1;ratioP1;P1;durP2;ratioP2;P2;SDS_P1;SDS_P2;PMS_P1;PMS_P2;Temp;Humidity;BMP_temperature;BMP_pressure;BME280_temperature;BME280_humidity;BME280_pressure;Samples;Min_cycle;Max_cycle;Signal;HPM_P1;HPM_P2
2021/04/18 00:00:57;;;;;;;7.17;4.53;;;10.20;55.80;;;;;;5043611;28;20792;-48
2021/04/18 00:03:24;;;;;;;9.93;5.13;;;10.30;56.00;;;;;;5062251;28;20828;-48
2021/04/18 00:05:50;;;;;;;8.30;6.43;;;10.30;56.00;;;;;;5048588;28;20477;-47
2021/04/18 00:08:17;;;;;;;9.10;4.60;;;10.30;56.00;;;;;;5047631;28;20466;-48
2021/04/18 00:10:44;;;;;;;10.20;5.40;;;10.30;56.10;;;;;;5050527;28;20456;-48
2021/04/18 00:13:12;;;;;;;8.97;4.63;;;10.30;56.30;;;;;;5028702;28;20975;-48
2021/04/18 00:15:42;;;;;;;6.87;4.40;;;10.30;56.40;;;;;;5046731;28;20496;-48
2021/04/18 00:18:10;;;;;;;7.10;5.30;;;10.30;56.50;;;;;;5045133;28;20982;-47
2021/04/18 00:20:37;;;;;;;5.63;5.00;;;10.30;56.40;;;;;;5048795;28;20481;-48
2021/04/18 00:23:03;;;;;;;6.87;5.37;;;10.20;56.70;;;;;;5044945;28;20458;-48
2021/04/18 00:25:30;;;;;;;9.53;5.37;;;10.20;56.80;;;;;;5065619;28;20466;-48
2021/04/18 00:27:56;;;;;;;9.57;5.40;;;10.20;56.90;;;;;;5045803;28;20468;-48
2021/04/18 00:30:24;;;;;;;6.37;5.10;;;10.30;57.30;;;;;;5049360;28;20714;-48
2021/04/18 00:32:59;;;;;;;7.73;6.10;;;10.20;57.30;;;;;;5049348;28;20457;-47
2021/04/18 00:35:26;;;;;;;8.93;5.60;;;10.20;57.30;;;;;;5048489;28;21029;-48
2021/04/18 00:37:52;;;;;;;7.77;5.83;;;10.20;57.30;;;;;;5043985;28;20492;-47
2021/04/18 00:40:21;;;;;;;8.30;5.60;;;10.20;57.30;;;;;;5049312;28;20462;-48
2021/04/18 00:42:48;;;;;;;8.23;5.70;;;10.20;57.30;;;;;;5045700;28;20458;-48
2021/04/18 00:45:14;;;;;;;10.40;5.80;;;10.20;57.20;;;;;;5045896;28;20539;-48
2021/04/18 00:47:43;;;;;;;7.20;5.77;;;10.20;57.30;;;;;;5049079;28;20848;-48
2021/04/18 00:50:12;;;;;;;10.53;5.80;;;10.20;57.70;;;;;;5048286;28;20829;-48
2021/04/18 00:52:39;;;;;;;8.10;6.90;;;10.20;57.70;;;;;;5048535;28;20965;-48
2021/04/18 00:55:07;;;;;;;7.77;5.53;;;10.20;57.60;;;;;;5048337;28;20454;-48
2021/04/18 00:57:34;;;;;;;9.10;5.80;;;10.20;57.70;;;;;;5049797;28;20487;-48
2021/04/18 01:00:03;;;;;;;8.43;6.30;;;10.10;57.80;;;;;;5043616;28;20464;-48
2021/04/18 01:02:30;;;;;;;7.90;6.70;;;10.20;57.90;;;;;;5046964;28;20973;-48
2021/04/18 01:04:56;;;;;;;6.70;6.00;;;10.10;58.00;;;;;;5049430;28;20447;-48
2021/04/18 01:07:22;;;;;;;9.73;6.20;;;10.10;58.00;;;;;;5046136;28;20465;-48
2021/04/18 01:09:48;;;;;;;10.57;6.27;;;10.00;58.30;;;;;;5050577;28;20470;-48
2021/04/18 01:12:15;;;;;;;8.23;5.70;;;10.00;58.40;;;;;;5045409;28;20462;-48
2021/04/18 01:14:42;;;;;;;8.97;5.70;;;10.00;58.50;;;;;;5042542;28;20463;-48
2021/04/18 01:17:11;;;;;;;9.40;5.90;;;10.00;58.50;;;;;;5047533;28;20497;-47
2021/04/18 01:19:38;;;;;;;10.33;6.13;;;10.00;58.70;;;;;;5043455;28;20459;-48
2021/04/18 01:22:04;;;;;;;12.63;6.30;;;10.00;58.80;;;;;;5045719;28;20455;-48
2021/04/18 01:24:30;;;;;;;11.57;5.90;;;10.00;58.80;;;;;;5043102;28;20459;-49
2021/04/18 01:26:57;;;;;;;9.20;6.43;;;9.90;59.00;;;;;;5062722;28;20458;-48
2021/04/18 01:29:24;;;;;;;9.23;6.43;;;10.00;59.20;;;;;;5048145;28;20458;-48
2021/04/18 01:31:51;;;;;;;8.13;6.37;;;9.90;59.20;;;;;;5046391;28;20472;-48
2021/04/18 01:34:17;;;;;;;7.10;5.10;;;9.90;59.20;;;;;;5047929;28;21817;-48
2021/04/18 01:36:45;;;;;;;10.00;6.40;;;10.00;59.10;;;;;;5045091;28;21026;-48
2021/04/18 01:39:13;;;;;;;11.77;7.50;;;10.00;59.10;;;;;;5046100;28;20450;-48
2021/04/18 01:41:40;;;;;;;10.23;6.83;;;9.90;59.10;;;;;;5045798;28;20461;-47
2021/04/18 01:44:12;;;;;;;10.07;7.00;;;9.90;59.30;;;;;;5040312;28;20506;-48
2021/04/18 01:46:43;;;;;;;12.30;8.33;;;9.90;59.40;;;;;;5049324;28;20477;-48
2021/04/18 01:49:09;;;;;;;12.13;6.67;;;9.90;59.50;;;;;;5058661;28;20466;-48
2021/04/18 01:51:38;;;;;;;9.20;7.57;;;9.90;59.50;;;;;;5044687;28;20466;-48
2021/04/18 01:54:06;;;;;;;10.83;7.20;;;9.90;59.50;;;;;;5047401;28;20473;-48
2021/04/18 01:56:32;;;;;;;10.77;8.20;;;9.90;59.70;;;;;;5043842;28;20493;-48
2021/04/18 01:58:59;;;;;;;12.17;7.33;;;9.90;59.70;;;;;;5046478;28;20466;-48
2021/04/18 02:01:25;;;;;;;7.47;6.37;;;9.80;59.80;;;;;;5048064;28;20977;-48
2021/04/18 02:03:52;;;;;;;9.73;7.23;;;9.90;59.80;;;;;;5059516;28;20461;-48
2021/04/18 02:06:19;;;;;;;13.30;8.10;;;9.90;59.80;;;;;;5047192;28;20454;-48
2021/04/18 02:08:45;;;;;;;13.40;7.77;;;9.90;59.80;;;;;;5045377;28;20494;-48
2021/04/18 02:11:11;;;;;;;9.07;7.50;;;9.90;59.90;;;;;;5045303;28;20458;-48
2021/04/18 02:13:38;;;;;;;10.77;9.60;;;9.80;59.80;;;;;;5047496;28;20469;-48
2021/04/18 02:16:05;;;;;;;10.13;6.40;;;9.80;59.90;;;;;;5048313;28;20512;-48
2021/04/18 02:18:31;;;;;;;10.20;6.57;;;9.90;59.90;;;;;;5045180;28;21026;-48
2021/04/18 02:20:58;;;;;;;13.53;6.70;;;9.90;60.00;;;;;;5047980;28;20575;-48
2021/04/18 02:23:24;;;;;;;14.70;7.43;;;9.90;60.00;;;;;;5061433;28;20817;-47
2021/04/18 02:25:52;;;;;;;8.97;6.87;;;9.90;60.10;;;;;;5042127;28;20545;-48
2021/04/18 02:28:18;;;;;;;14.83;7.77;;;9.90;60.10;;;;;;5047579;28;20455;-48
2021/04/18 02:30:44;;;;;;;8.70;6.83;;;9.90;60.10;;;;;;5044409;28;20895;-48
2021/04/18 02:33:10;;;;;;;8.30;6.73;;;9.90;60.20;;;;;;5044256;28;20459;-48
2021/04/18 02:35:37;;;;;;;9.37;6.87;;;9.90;60.20;;;;;;5062301;28;20466;-48
2021/04/18 02:38:03;;;;;;;12.00;7.07;;;9.90;60.20;;;;;;5046293;28;20478;-47
2021/04/18 02:40:29;;;;;;;10.73;6.47;;;9.90;60.10;;;;;;5044367;28;20850;-47
2021/04/18 02:42:56;;;;;;;8.40;6.40;;;9.90;60.00;;;;;;5061456;28;20497;-48
2021/04/18 02:45:22;;;;;;;10.30;6.83;;;9.90;60.10;;;;;;5047038;28;20462;-48
2021/04/18 02:47:48;;;;;;;11.10;7.63;;;9.90;60.30;;;;;;5047826;28;20557;-48
2021/04/18 02:50:15;;;;;;;11.67;6.43;;;10.00;60.30;;;;;;5046141;28;20466;-48
2021/04/18 02:52:41;;;;;;;9.80;5.90;;;10.00;60.20;;;;;;5041220;28;20955;-48
2021/04/18 02:55:09;;;;;;;9.93;6.50;;;10.00;60.20;;;;;;5047745;28;20500;-48
2021/04/18 02:57:35;;;;;;;10.47;5.97;;;9.90;60.10;;;;;;5048302;28;20489;-48
2021/04/18 03:00:03;;;;;;;8.23;6.40;;;10.00;60.10;;;;;;5045248;28;20972;-48
2021/04/18 03:02:29;;;;;;;10.53;5.83;;;9.90;60.30;;;;;;5045030;28;20454;-48
2021/04/18 03:04:59;;;;;;;10.67;5.50;;;10.00;60.20;;;;;;5044691;28;20997;-48
2021/04/18 03:07:26;;;;;;;8.47;6.67;;;9.90;60.20;;;;;;5060980;28;20458;-48
2021/04/18 03:09:53;;;;;;;8.27;6.23;;;9.90;60.20;;;;;;5046135;28;20512;-48
2021/04/18 03:12:19;;;;;;;10.30;6.43;;;9.90;60.40;;;;;;5048341;28;20451;-48
2021/04/18 03:14:46;;;;;;;8.27;6.03;;;9.90;60.50;;;;;;5049585;28;20471;-48
2021/04/18 03:17:12;;;;;;;6.50;4.83;;;9.90;60.50;;;;;;5045763;28;20493;-48
2021/04/18 03:19:39;;;;;;;8.40;6.60;;;9.90;60.50;;;;;;5044104;28;20469;-48
2021/04/18 03:22:06;;;;;;;7.90;5.73;;;9.90;60.40;;;;;;5043137;28;20962;-48
2021/04/18 03:24:32;;;;;;;10.40;6.13;;;9.80;60.50;;;;;;5044567;28;20512;-48
2021/04/18 03:26:59;;;;;;;9.80;6.77;;;9.80;60.60;;;;;;5043922;28;20459;-48
2021/04/18 03:29:25;;;;;;;10.37;6.30;;;9.80;60.50;;;;;;5046449;28;20466;-48
2021/04/18 03:31:51;;;;;;;8.90;6.17;;;9.80;60.40;;;;;;5045027;28;20465;-48
2021/04/18 03:34:18;;;;;;;8.00;5.87;;;9.80;60.80;;;;;;5045201;28;20462;-48
2021/04/18 03:36:44;;;;;;;9.20;6.70;;;9.80;60.90;;;;;;5042870;28;20810;-48
2021/04/18 03:39:10;;;;;;;7.37;5.70;;;9.80;61.20;;;;;;5048133;28;20805;-48
2021/04/18 03:41:36;;;;;;;9.00;5.93;;;9.80;61.20;;;;;;5050264;28;20469;-48
2021/04/18 03:44:03;;;;;;;10.00;6.80;;;9.80;61.10;;;;;;5047269;28;20455;-48
2021/04/18 03:46:29;;;;;;;11.53;6.70;;;9.80;61.10;;;;;;5048758;28;20561;-48
2021/04/18 03:48:56;;;;;;;12.20;6.50;;;9.80;61.20;;;;;;5050450;28;20993;-48
2021/04/18 03:51:43;;;;;;;10.53;6.00;;;9.80;61.10;;;;;;5047001;28;20458;-48
2021/04/18 03:54:09;;;;;;;8.80;5.73;;;9.80;61.00;;;;;;5050774;28;20971;-47
2021/04/18 03:56:36;;;;;;;6.60;5.93;;;9.80;60.90;;;;;;5047394;28;20505;-48
2021/04/18 03:59:02;;;;;;;9.67;7.20;;;9.80;60.90;;;;;;5051175;28;20464;-48
2021/04/18 04:01:29;;;;;;;6.30;5.70;;;9.80;61.00;;;;;;5047806;28;21072;-48
2021/04/18 04:03:56;;;;;;;8.70;6.00;;;9.80;61.00;;;;;;5045795;28;20461;-48
2021/04/18 04:06:23;;;;;;;7.33;6.20;;;9.70;61.10;;;;;;5051404;28;20817;-48
2021/04/18 04:08:49;;;;;;;9.07;6.50;;;9.70;61.30;;;;;;5051168;28;20467;-48
2021/04/18 04:11:15;;;;;;;7.60;5.60;;;9.70;61.40;;;;;;5062872;28;20458;-48
2021/04/18 04:13:41;;;;;;;9.70;6.00;;;9.80;61.40;;;;;;5052564;28;20452;-48
2021/04/18 04:16:08;;;;;;;7.77;6.60;;;9.80;61.50;;;;;;5046752;28;20486;-47
2021/04/18 04:18:34;;;;;;;9.57;6.60;;;9.80;61.50;;;;;;5048223;28;20458;-48
2021/04/18 04:21:01;;;;;;;7.83;5.97;;;9.80;61.60;;;;;;5047463;28;21128;-48
2021/04/18 04:23:27;;;;;;;8.93;6.20;;;9.70;61.70;;;;;;5050804;28;21054;-48
2021/04/18 04:25:53;;;;;;;9.60;6.10;;;9.70;61.80;;;;;;5048105;28;20443;-48
2021/04/18 04:28:20;;;;;;;9.20;6.27;;;9.80;61.60;;;;;;5046085;28;20462;-48
2021/04/18 04:30:46;;;;;;;14.97;6.30;;;9.70;61.70;;;;;;5046470;28;20856;-48
2021/04/18 04:33:12;;;;;;;12.00;7.30;;;9.70;61.80;;;;;;5044096;28;20473;-48
2021/04/18 04:35:40;;;;;;;9.53;6.97;;;9.70;61.70;;;;;;5055088;28;20466;-48
2021/04/18 04:38:07;;;;;;;13.83;6.87;;;9.70;61.40;;;;;;5051189;28;20521;-48
2021/04/18 04:40:33;;;;;;;9.43;5.90;;;9.70;61.50;;;;;;5049456;28;20447;-48
2021/04/18 04:43:00;;;;;;;7.10;5.87;;;9.70;61.80;;;;;;5047961;28;20464;-47
2021/04/18 04:45:26;;;;;;;8.10;6.40;;;9.70;62.30;;;;;;5047578;28;20566;-48
2021/04/18 04:47:52;;;;;;;8.83;6.50;;;9.70;62.90;;;;;;5044992;28;20479;-47
2021/04/18 04:50:19;;;;;;;9.80;6.60;;;9.70;63.70;;;;;;5048121;28;20611;-48
2021/04/18 04:52:45;;;;;;;9.87;5.57;;;9.70;63.90;;;;;;5048452;28;20473;-48
2021/04/18 04:55:12;;;;;;;8.27;5.93;;;9.70;64.00;;;;;;5048837;28;20450;-48
2021/04/18 04:57:39;;;;;;;7.87;6.37;;;9.70;64.30;;;;;;5048698;28;20518;-48
2021/04/18 05:00:07;;;;;;;23.33;6.90;;;9.70;64.60;;;;;;5045680;28;20820;-48
2021/04/18 05:02:33;;;;;;;7.37;6.50;;;9.60;64.80;;;;;;5047815;28;20449;-48
2021/04/18 05:05:00;;;;;;;9.50;7.00;;;9.70;65.70;;;;;;5047782;28;20455;-47
2021/04/18 05:07:27;;;;;;;10.30;7.73;;;9.60;66.70;;;;;;5064279;28;20900;-49
2021/04/18 05:09:53;;;;;;;10.90;7.50;;;9.60;67.30;;;;;;5064277;28;20459;-48
2021/04/18 05:12:19;;;;;;;12.50;7.13;;;9.60;68.10;;;;;;5047705;28;20459;-48
2021/04/18 05:14:46;;;;;;;9.60;6.77;;;9.60;69.10;;;;;;5050423;28;20467;-48
2021/04/18 05:17:12;;;;;;;11.30;6.77;;;9.60;69.40;;;;;;5048981;28;20514;-47
2021/04/18 05:19:38;;;;;;;9.67;6.53;;;9.60;70.20;;;;;;5049834;28;20446;-48
2021/04/18 05:22:05;;;;;;;9.00;6.60;;;9.60;71.00;;;;;;5048515;28;20454;-47
2021/04/18 05:24:31;;;;;;;12.80;7.10;;;9.60;70.90;;;;;;5048057;28;20497;-48
2021/04/18 05:26:57;;;;;;;10.33;7.00;;;9.50;70.60;;;;;;5059365;28;20457;-48
2021/04/18 05:29:24;;;;;;;9.50;6.40;;;9.50;70.60;;;;;;5049369;28;20458;-48
2021/04/18 05:31:50;;;;;;;10.30;7.03;;;9.50;70.70;;;;;;5047870;28;20477;-48
2021/04/18 05:34:16;;;;;;;10.40;7.30;;;9.40;70.90;;;;;;5043927;28;20462;-48
2021/04/18 05:36:43;;;;;;;11.57;8.10;;;9.40;71.60;;;;;;5047373;28;20479;-48
2021/04/18 05:39:10;;;;;;;11.07;7.23;;;9.40;72.10;;;;;;5048649;28;20455;-48
2021/04/18 05:41:36;;;;;;;13.60;8.10;;;9.50;73.00;;;;;;5045355;28;20454;-48
2021/04/18 05:44:04;;;;;;;10.37;7.97;;;9.50;73.30;;;;;;5043525;28;20489;-48
2021/04/18 05:46:33;;;;;;;13.03;8.43;;;9.40;73.40;;;;;;5047172;28;20498;-48
2021/04/18 05:48:59;;;;;;;14.70;8.60;;;9.40;73.60;;;;;;5046561;28;20454;-48
2021/04/18 05:51:25;;;;;;;11.23;7.63;;;9.40;73.80;;;;;;5065211;28;20446;-48
2021/04/18 05:53:52;;;;;;;10.67;7.50;;;9.40;74.20;;;;;;5049859;28;20486;-48
2021/04/18 05:56:20;;;;;;;13.73;8.37;;;9.40;74.90;;;;;;5048796;28;20443;-48
2021/04/18 05:58:46;;;;;;;12.40;8.40;;;9.40;75.00;;;;;;5048767;28;20875;-48
2021/04/18 06:01:12;;;;;;;8.30;7.17;;;9.40;75.00;;;;;;5049034;28;21003;-48
2021/04/18 06:03:39;;;;;;;13.13;8.47;;;9.40;74.80;;;;;;5047753;28;20459;-48
2021/04/18 06:06:07;;;;;;;9.80;7.23;;;9.40;75.10;;;;;;5048967;28;20524;-47
2021/04/18 06:08:33;;;;;;;11.43;7.50;;;9.30;75.30;;;;;;5042710;28;20457;-48
2021/04/18 06:10:59;;;;;;;10.60;7.80;;;9.30;75.80;;;;;;5048740;28;20962;-48
2021/04/18 06:13:25;;;;;;;10.93;8.30;;;9.30;76.00;;;;;;5048018;28;20474;-48
2021/04/18 06:15:53;;;;;;;10.70;8.37;;;9.30;76.20;;;;;;5046193;28;20516;-48
2021/04/18 06:18:20;;;;;;;13.00;8.77;;;9.30;76.60;;;;;;5045765;28;20493;-48
2021/04/18 06:20:46;;;;;;;16.00;8.90;;;9.30;76.90;;;;;;5049446;28;20504;-49
2021/04/18 06:23:12;;;;;;;14.00;9.63;;;9.30;77.00;;;;;;5048027;28;20468;-49
2021/04/18 06:25:38;;;;;;;18.13;10.07;;;9.30;77.20;;;;;;5047828;28;20450;-48
2021/04/18 06:28:05;;;;;;;12.77;8.37;;;9.30;77.30;;;;;;5048509;28;20950;-48
2021/04/18 06:30:32;;;;;;;12.47;8.87;;;9.30;77.70;;;;;;5048598;28;20454;-48
2021/04/18 06:32:58;;;;;;;12.77;9.60;;;9.30;77.70;;;;;;5047912;28;20482;-48
2021/04/18 06:35:25;;;;;;;14.10;9.27;;;9.30;77.60;;;;;;5048508;28;20451;-49
2021/04/18 06:37:51;;;;;;;13.40;9.20;;;9.30;77.60;;;;;;5047351;28;20478;-49
2021/04/18 06:40:17;;;;;;;13.33;9.60;;;9.30;77.40;;;;;;5047252;28;20466;-48
2021/04/18 06:42:45;;;;;;;12.20;8.57;;;9.30;77.30;;;;;;5045811;28;20446;-48
2021/04/18 06:45:12;;;;;;;11.63;9.60;;;9.40;78.40;;;;;;5064121;28;20439;-48
2021/04/18 06:47:39;;;;;;;11.17;8.90;;;9.50;78.10;;;;;;5045913;28;20455;-49
2021/04/18 06:50:08;;;;;;;13.87;8.63;;;9.50;78.00;;;;;;5047144;28;20496;-49
2021/04/18 06:52:36;;;;;;;14.47;10.00;;;9.50;78.00;;;;;;5049282;28;20454;-49
2021/04/18 06:55:04;;;;;;;13.87;9.87;;;9.60;77.90;;;;;;5047734;28;20458;-49
2021/04/18 06:57:30;;;;;;;14.80;9.70;;;9.60;77.80;;;;;;5045042;28;20483;-48
2021/04/18 06:59:57;;;;;;;14.57;11.10;;;9.70;77.80;;;;;;5050116;28;20553;-48
2021/04/18 07:02:25;;;;;;;18.40;9.37;;;9.70;77.80;;;;;;5045906;28;20447;-48
2021/04/18 07:05:03;;;;;;;20.17;11.90;;;9.70;77.70;;;;;;5047101;28;20846;-49
2021/04/18 07:07:32;;;;;;;12.60;9.03;;;9.70;77.40;;;;;;5047580;28;20530;-48
2021/04/18 07:09:59;;;;;;;13.40;10.60;;;9.80;77.30;;;;;;5041600;28;20454;-48
2021/04/18 07:12:31;;;;;;;14.10;9.50;;;9.70;77.20;;;;;;5048543;28;20462;-48
2021/04/18 07:14:59;;;;;;;13.33;10.17;;;9.70;77.20;;;;;;5051571;28;20472;-48
2021/04/18 07:17:26;;;;;;;17.30;10.13;;;9.70;77.40;;;;;;5049538;28;20842;-48
2021/04/18 07:20:08;;;;;;;15.80;9.60;;;9.70;77.60;;;;;;5049113;28;20458;-48
2021/04/18 07:22:35;;;;;;;13.47;9.70;;;9.70;77.80;;;;;;5052690;28;20825;-48
2021/04/18 07:25:03;;;;;;;12.47;9.97;;;9.70;78.00;;;;;;5051292;28;20585;-48
2021/04/18 07:27:49;;;;;;;13.80;9.77;;;9.60;78.10;;;;;;5047935;28;20459;-48
2021/04/18 07:30:18;;;;;;;9.83;8.53;;;9.60;78.10;;;;;;5045501;28;20973;-48
2021/04/18 07:32:45;;;;;;;14.33;9.43;;;9.60;78.20;;;;;;5049588;28;20450;-49
2021/04/18 07:35:32;;;;;;;13.80;10.10;;;9.60;78.40;;;;;;5048215;28;20458;-48
2021/04/18 07:38:21;;;;;;;15.90;9.30;;;9.60;78.70;;;;;;5049292;28;20481;-48
2021/04/18 07:40:50;;;;;;;14.43;9.50;;;9.60;78.80;;;;;;5049655;28;20462;-48
2021/04/18 07:43:18;;;;;;;16.90;10.07;;;9.60;78.90;;;;;;5048402;28;20517;-48
2021/04/18 07:45:49;;;;;;;15.70;10.60;;;9.60;79.40;;;;;;5052412;28;20449;-48
2021/04/18 07:48:20;;;;;;;13.83;9.87;;;9.60;79.50;;;;;;5050173;28;20454;-48
2021/04/18 07:50:48;;;;;;;15.10;10.07;;;9.60;79.60;;;;;;5048620;28;20586;-48
2021/04/18 07:53:18;;;;;;;16.40;12.33;;;9.60;79.70;;;;;;5045315;28;20458;-48
2021/04/18 07:55:45;;;;;;;14.70;10.77;;;9.60;79.80;;;;;;5043905;28;20458;-48
2021/04/18 07:58:12;;;;;;;17.63;11.83;;;9.60;79.80;;;;;;5049144;28;20482;-48
2021/04/18 08:00:39;;;;;;;15.97;10.50;;;9.60;79.80;;;;;;5046628;28;20466;-49
2021/04/18 08:03:05;;;;;;;18.40;11.20;;;9.60;79.80;;;;;;5049070;28;20447;-48
2021/04/18 08:05:34;;;;;;;14.37;10.17;;;9.60;79.40;;;;;;5049144;28;20883;-48
2021/04/18 08:08:14;;;;;;;16.57;11.10;;;9.60;79.10;;;;;;5050315;28;20451;-48
2021/04/18 08:10:44;;;;;;;15.40;10.47;;;9.60;78.40;;;;;;5050792;28;20840;-48
2021/04/18 08:13:18;;;;;;;12.63;10.73;;;9.60;78.30;;;;;;5049607;28;20454;-48
2021/04/18 08:15:57;;;;;;;15.47;10.47;;;9.60;78.50;;;;;;5047348;28;20478;-48
2021/04/18 08:18:33;;;;;;;14.33;10.00;;;9.60;78.70;;;;;;5062861;28;20478;-48
2021/04/18 08:21:02;;;;;;;17.50;12.00;;;9.60;79.30;;;;;;5050084;28;20692;-48
2021/04/18 08:23:41;;;;;;;17.17;11.57;;;9.60;79.40;;;;;;5050103;28;20455;-48
2021/04/18 08:26:11;;;;;;;16.57;12.13;;;9.60;79.60;;;;;;5046854;28;20490;-48
2021/04/18 08:31:23;;;;;;;16.70;12.40;;;9.60;80.00;;;;;;5051682;28;20450;-48
2021/04/18 08:33:53;;;;;;;18.47;12.93;;;9.60;80.00;;;;;;5048801;28;20830;-48
2021/04/18 08:36:25;;;;;;;16.50;13.73;;;9.60;80.10;;;;;;5049206;28;20550;-48
2021/04/18 08:39:00;;;;;;;17.07;12.03;;;9.50;80.30;;;;;;5050061;28;20478;-48
2021/04/18 08:41:43;;;;;;;17.43;13.20;;;9.50;80.40;;;;;;5049250;28;20466;-48
2021/04/18 08:44:17;;;;;;;19.77;12.77;;;9.60;80.40;;;;;;5066862;28;20525;-48
2021/04/18 08:46:44;;;;;;;16.40;12.13;;;9.60;80.50;;;;;;5046726;28;20494;-48
2021/04/18 08:49:11;;;;;;;21.37;13.00;;;9.60;80.60;;;;;;5050267;28;20443;-48
2021/04/18 08:51:39;;;;;;;18.93;13.60;;;9.60;80.90;;;;;;5049254;28;21033;-48
2021/04/18 08:54:06;;;;;;;17.47;15.77;;;9.70;81.00;;;;;;5050583;28;20557;-48
2021/04/18 08:56:49;;;;;;;17.10;14.07;;;9.70;81.30;;;;;;5048774;28;20890;-48
2021/04/18 08:59:19;;;;;;;27.60;13.83;;;9.80;81.70;;;;;;5045280;28;20462;-48
2021/04/18 09:02:13;;;;;;;19.87;12.43;;;9.80;81.90;;;;;;5047371;28;20461;-48
2021/04/18 09:04:43;;;;;;;19.90;13.73;;;9.90;81.90;;;;;;5047570;28;20485;-48
2021/04/18 09:07:13;;;;;;;25.77;15.53;;;10.00;82.00;;;;;;5051939;28;20541;-48
2021/04/18 09:09:40;;;;;;;22.43;15.37;;;10.00;82.00;;;;;;5046471;28;20481;-48
2021/04/18 09:12:07;;;;;;;21.63;13.63;;;10.00;81.70;;;;;;5049388;28;20453;-47
2021/04/18 09:14:35;;;;;;;25.70;16.10;;;10.00;81.60;;;;;;5046444;28;20461;-48
2021/04/18 09:17:09;;;;;;;22.43;13.10;;;10.00;81.60;;;;;;5030324;28;20545;-48
2021/04/18 09:19:36;;;;;;;17.40;12.37;;;10.00;81.60;;;;;;5046176;28;20538;-48
2021/04/18 09:22:07;;;;;;;17.43;11.33;;;10.10;81.30;;;;;;5049191;28;20442;-48
2021/04/18 09:24:40;;;;;;;15.67;11.40;;;10.10;81.00;;;;;;5049959;28;21034;-48
2021/04/18 09:27:17;;;;;;;16.73;11.97;;;10.20;80.70;;;;;;5048814;28;20779;-48
2021/04/18 09:29:49;;;;;;;18.07;11.70;;;10.20;80.60;;;;;;5047540;28;20541;-48
2021/04/18 09:32:20;;;;;;;16.63;12.20;;;10.20;80.60;;;;;;5045121;28;20453;-48
2021/04/18 09:34:48;;;;;;;18.00;12.20;;;10.30;80.40;;;;;;5044982;28;20466;-48
2021/04/18 09:37:19;;;;;;;15.20;11.60;;;10.30;80.10;;;;;;5045795;28;20843;-48
2021/04/18 09:39:51;;;;;;;19.80;12.90;;;10.40;79.60;;;;;;5045444;28;20451;-48
2021/04/18 09:42:18;;;;;;;16.87;11.13;;;10.40;79.30;;;;;;5044179;28;20526;-47
2021/04/18 09:44:46;;;;;;;19.07;11.27;;;10.50;78.80;;;;;;5043723;28;20457;-48
2021/04/18 09:47:22;;;;;;;15.17;10.77;;;10.50;78.70;;;;;;5049031;28;20554;-48
2021/04/18 09:49:54;;;;;;;13.60;10.73;;;10.60;78.70;;;;;;5042886;28;20466;-48
2021/04/18 09:52:26;;;;;;;17.60;11.40;;;10.60;78.80;;;;;;5041737;28;20497;-48
2021/04/18 09:54:53;;;;;;;20.00;11.00;;;10.60;78.80;;;;;;5046564;28;20455;-48
2021/04/18 09:57:25;;;;;;;14.20;10.57;;;10.60;78.60;;;;;;5049645;28;20486;-48
2021/04/18 10:00:12;;;;;;;16.33;10.37;;;10.50;78.60;;;;;;5046571;28;20599;-48
2021/04/18 10:02:39;;;;;;;16.03;11.33;;;10.50;78.90;;;;;;5045461;28;20477;-48
2021/04/18 10:05:09;;;;;;;16.47;10.73;;;10.60;79.00;;;;;;5048918;28;20442;-48
2021/04/18 10:07:36;;;;;;;15.33;11.53;;;10.60;79.00;;;;;;5047456;28;20450;-48
2021/04/18 10:10:02;;;;;;;14.63;11.27;;;10.60;79.00;;;;;;5049755;28;20442;-48
2021/04/18 10:12:29;;;;;;;16.33;9.90;;;10.60;79.10;;;;;;5049588;28;20891;-47
2021/04/18 10:15:05;;;;;;;17.53;12.43;;;10.70;79.20;;;;;;5044622;28;20458;-48
2021/04/18 10:17:35;;;;;;;20.33;11.43;;;10.70;79.60;;;;;;5046340;28;20488;-47
2021/04/18 10:20:04;;;;;;;12.70;10.13;;;10.80;79.70;;;;;;5048719;28;20451;-48
2021/04/18 10:22:31;;;;;;;15.03;11.00;;;10.90;79.60;;;;;;5046210;28;20457;-48
2021/04/18 10:24:58;;;;;;;15.53;11.40;;;11.00;79.30;;;;;;5047014;28;20457;-48
2021/04/18 10:27:33;;;;;;;14.37;10.37;;;11.00;79.30;;;;;;5048138;28;21026;-48
2021/04/18 10:30:05;;;;;;;10.77;9.67;;;11.00;79.20;;;;;;5047670;28;20450;-48
2021/04/18 10:32:31;;;;;;;20.37;10.90;;;11.00;78.70;;;;;;5046189;28;20963;-47
2021/04/18 10:34:58;;;;;;;17.97;10.93;;;11.00;78.70;;;;;;5046004;28;20455;-48
2021/04/18 10:37:25;;;;;;;17.20;12.20;;;11.00;78.60;;;;;;5049241;28;21189;-48
2021/04/18 10:39:51;;;;;;;17.83;12.37;;;11.00;78.60;;;;;;5048878;28;20516;-48
2021/04/18 10:42:18;;;;;;;16.87;12.13;;;10.90;79.00;;;;;;5046194;28;21086;-48
2021/04/18 10:44:45;;;;;;;14.57;12.60;;;10.90;79.60;;;;;;5047580;28;21013;-48
2021/04/18 10:47:16;;;;;;;16.97;10.97;;;10.90;79.60;;;;;;5047485;28;20542;-48
2021/04/18 10:49:45;;;;;;;16.97;12.07;;;10.90;79.30;;;;;;5043514;28;20451;-48
2021/04/18 10:52:12;;;;;;;16.10;11.73;;;10.80;79.50;;;;;;5047960;28;20461;-48
2021/04/18 10:54:38;;;;;;;20.07;12.70;;;10.80;79.90;;;;;;5046666;28;20628;-48
2021/04/18 10:57:05;;;;;;;16.30;12.13;;;10.80;79.90;;;;;;5049208;28;20855;-47
2021/04/18 10:59:31;;;;;;;16.10;11.67;;;10.80;80.70;;;;;;5047069;28;20806;-48
2021/04/18 11:01:58;;;;;;;15.80;13.80;;;10.80;80.90;;;;;;5050874;28;20965;-48
2021/04/18 11:04:24;;;;;;;21.87;15.03;;;10.90;80.90;;;;;;5041633;28;20481;-48
2021/04/18 11:06:51;;;;;;;19.23;12.93;;;10.90;80.80;;;;;;5058670;28;20470;-48
2021/04/18 11:09:17;;;;;;;17.67;12.30;;;11.00;81.00;;;;;;5045661;28;20547;-48
2021/04/18 11:11:44;;;;;;;17.67;11.53;;;11.00;80.90;;;;;;5048653;28;20526;-48
2021/04/18 11:14:10;;;;;;;18.17;12.70;;;11.10;80.90;;;;;;5046460;28;20542;-48
2021/04/18 11:16:36;;;;;;;15.93;12.00;;;11.20;80.90;;;;;;5042316;28;20486;-48
2021/04/18 11:19:03;;;;;;;16.90;11.87;;;11.30;80.90;;;;;;5059828;28;20496;-48
2021/04/18 11:21:29;;;;;;;18.57;11.80;;;11.40;80.50;;;;;;5045467;28;20471;-48
2021/04/18 11:23:57;;;;;;;16.27;11.20;;;11.50;79.30;;;;;;5043015;28;20478;-47
2021/04/18 11:26:24;;;;;;;19.90;11.70;;;11.60;78.90;;;;;;5046200;28;20460;-47
2021/04/18 11:28:51;;;;;;;14.20;11.17;;;11.60;78.80;;;;;;5044641;28;20458;-47
2021/04/18 11:31:18;;;;;;;15.90;11.40;;;11.60;79.20;;;;;;5043201;28;20476;-47
2021/04/18 11:33:45;;;;;;;17.50;12.00;;;11.60;79.00;;;;;;5044782;28;20469;-50
2021/04/18 11:36:15;;;;;;;15.23;11.03;;;11.70;79.10;;;;;;5045994;28;20469;-49
2021/04/18 11:38:43;;;;;;;19.57;11.73;;;11.70;79.20;;;;;;5043583;28;20487;-47
2021/04/18 11:41:10;;;;;;;17.43;13.07;;;11.70;79.30;;;;;;5043244;28;20501;-50
2021/04/18 11:43:36;;;;;;;16.63;12.27;;;11.80;79.30;;;;;;5045854;28;20776;-48
2021/04/18 11:46:05;;;;;;;17.90;11.77;;;11.90;79.40;;;;;;5044514;28;20459;-49
2021/04/18 11:48:31;;;;;;;13.80;11.33;;;12.00;78.40;;;;;;5045153;28;20533;-47
2021/04/18 11:50:59;;;;;;;17.43;11.40;;;12.00;78.10;;;;;;5060782;28;20527;-47
2021/04/18 11:53:27;;;;;;;14.97;10.40;;;12.00;77.90;;;;;;5046926;28;20465;-47
2021/04/18 11:55:54;;;;;;;15.80;11.90;;;12.00;78.20;;;;;;5047104;28;20455;-48
2021/04/18 11:58:21;;;;;;;17.03;11.40;;;12.00;78.40;;;;;;5045132;28;20486;-48
2021/04/18 12:00:47;;;;;;;16.40;11.13;;;12.10;78.50;;;;;;5049943;28;20472;-48
2021/04/18 12:03:17;;;;;;;15.70;11.30;;;12.10;78.30;;;;;;5066471;28;20843;-48
2021/04/18 12:05:45;;;;;;;13.50;11.00;;;12.10;77.90;;;;;;5050939;28;20497;-48
2021/04/18 12:08:16;;;;;;;15.13;11.40;;;12.20;77.60;;;;;;5054509;28;20470;-48
2021/04/18 12:10:43;;;;;;;15.27;11.10;;;12.30;76.90;;;;;;5048418;28;20919;-48
2021/04/18 12:13:10;;;;;;;14.87;10.70;;;12.40;75.80;;;;;;5050903;28;21034;-49
2021/04/18 12:15:37;;;;;;;13.60;10.87;;;12.40;76.10;;;;;;5050493;28;21070;-50
2021/04/18 12:18:03;;;;;;;12.63;10.17;;;12.50;75.60;;;;;;5051130;28;20834;-47
2021/04/18 12:20:30;;;;;;;12.83;10.90;;;12.60;75.30;;;;;;5050786;28;20853;-48
2021/04/18 12:22:56;;;;;;;14.33;9.87;;;12.70;75.00;;;;;;5050596;28;20488;-48
2021/04/18 12:25:22;;;;;;;14.83;10.87;;;12.70;74.10;;;;;;5046171;28;20471;-47
2021/04/18 12:27:49;;;;;;;11.37;8.67;;;12.70;73.60;;;;;;5045495;28;20473;-48
2021/04/18 12:30:15;;;;;;;15.50;10.90;;;12.80;73.20;;;;;;5046944;28;20998;-49
2021/04/18 12:32:45;;;;;;;14.67;10.60;;;12.90;72.80;;;;;;5050114;28;20468;-47
2021/04/18 12:35:12;;;;;;;15.07;10.97;;;13.00;73.30;;;;;;5049234;28;20458;-49
2021/04/18 12:37:38;;;;;;;15.27;10.57;;;13.20;73.90;;;;;;5042067;28;21290;-48
2021/04/18 12:40:06;;;;;;;15.97;10.50;;;13.30;71.10;;;;;;5046087;28;20824;-49
2021/04/18 12:42:32;;;;;;;14.93;10.17;;;13.40;71.40;;;;;;5046116;28;20850;-49
2021/04/18 12:44:58;;;;;;;12.67;10.47;;;13.50;70.90;;;;;;5046574;28;20457;-49
2021/04/18 12:47:24;;;;;;;14.33;10.90;;;13.50;70.30;;;;;;5051109;28;20470;-49